Detall de PIREP

Printer-friendly versionPDF version

[2016/01/01 15:28:00]
Flight IATA:CT1004
Pilot Number:016
Company ICAO:CAT
Aircraft Type:B738/F
PAX:146
Departing Airport: LEBL
Destination Airport: GCXO
Alternate Airport:GCLP
Online: VATSIM
Route:LOTOS UM985 YES UN747 SVL UN857 TERTO
Flight Level:F360
No Slew and time accel
No pause
Crash detect
Detect pilot in Cockpit between each 30 and 45 minutes
15:28 Zero fuel Weight: 118477 Lbs, Fuel Weight: 30714 Lbs
15:28 VATSIM:LEBL 312200Z 31005KT 9999 FEW015 12/09 Q1025 NOSIG
15:28 VATSIM:GCXO 312130Z VRB01KT CAVOK 13/01 Q1027 NOSIG
15:29 Parking Brakes off
15:37 Take-off
15:37 Take off Weight: 148078 Lbs
15:37 Wind: 312º @ 005 Knots Heading: 247º
15:37 POS N41º 17´ 08´´ E002º 05´ 02´´
15:37 Flaps:3 at 165 Knots
15:37 Gear Up: 166 Knots
15:39 Flaps:2 at 241 Knots
15:40 Flaps:1 at 241 Knots
15:40 Flaps:0 at 241 Knots
15:52 Wind:353º@002 Knots Heading: 227º Ground Speed: 461 Knots Altitude 32099 ft
15:55 TOC
15:55 Fuel Weight: 25547 Lb
16:07 Wind:142º@012 Knots Heading: 230º Ground Speed: 452 Knots Altitude 36371 ft
16:22 Wind:036º@002 Knots Heading: 248º Ground Speed: 454 Knots Altitude 36377 ft
16:37 Wind:190º@002 Knots Heading: 220º Ground Speed: 452 Knots Altitude 36348 ft
16:52 Wind:149º@007 Knots Heading: 218º Ground Speed: 449 Knots Altitude 36354 ft
17:07 Wind:079º@006 Knots Heading: 217º Ground Speed: 456 Knots Altitude 36364 ft
17:22 Wind:079º@006 Knots Heading: 217º Ground Speed: 456 Knots Altitude 36364 ft
17:37 Wind:079º@006 Knots Heading: 216º Ground Speed: 456 Knots Altitude 36364 ft
17:52 Wind:079º@006 Knots Heading: 215º Ground Speed: 456 Knots Altitude 36364 ft
18:02 TOD
18:02 Fuel Weight: 13392 Lb
18:07 Wind:079º@006 Knots Heading: 258º Ground Speed: 412 Knots Altitude 24603 ft
18:13 Flaps:1 at 229 Knots
18:17 Flaps:2 at 221 Knots
18:17 Flaps:3 at 220 Knots
18:17 Flaps:4 at 197 Knots
18:17 Gear Down: 196 Knots
18:20 Flaps:5 at 169 Knots
18:20 Flaps:6 at 167 Knots
18:20 Flaps:7 at 147 Knots
18:20 Flaps:8 at 146 Knots
18:22 Wind:095º@002 Knots Heading: 125º Ground Speed: 139 Knots Altitude 3395 ft
18:23 TouchDown:Rate -526 ft/min Speed: 130 Knots
18:24 VATSIM:GCXO 312130Z VRB01KT CAVOK 13/01 Q1027 NOSIG
18:24 Land
18:24 Wind:096º@002 Knots
18:24 Heading: 109º
18:24 Flight Duration: 02:47
18:24 Landing Weight: 130551 Lbs
18:24 POS N28º 28´ 59´´ W016º 20´ 34´´
18:26 Parking brakes on
18:26 Block to Block Duration: 02:57
18:26 Final Fuel: 11920 Lbls
18:26 Spent Fuel: 18794 Lbls
18:26 Flight Length: 1183 NM
18:26 TOD Land Length: 107 NM

Exportar CSV

Powered by Drupal - Modified by Danger4k